• Join FlightAware (Why Join?)
  • Login
  • US Flag 
12:35PM EDT


 

Airport Tracker/Info


-or-


 

Live Flight TrackerFlight Track Log ✈ RPA3253 ✈ 14-Jun-2013 ✈ KCLT - KMSY

Flight Track Log - Related Links

Times and Time Zones

All times are in EDT time to prevent confusion due to time zone crossing. See the RPA3253 flight status page for this flight to view local times or setup timezone preferences in your user account.

Time Position Orientation Groundspeed Altitude Reporting Facility
EDT Latitude Longitude Course Direction KTS MPH feet Rate Location/Type
10:40PM 35.2331 -80.9594 251° West 150 173 1,600  Level Atlanta Center
10:41PM 35.2544 -80.9714 335° Northwest 175 201 2,100 1,680 Climbing Atlanta Center
10:42PM 35.2894 -81.0414 302° West 276 318 4,200 2,580 Climbing Atlanta Center
10:43PM 35.1976 -81.2463 199° South  Level FlightAware Approximate
10:43PM 35.2497 -81.1267 240° Southwest 299 344 7,600  Level Atlanta Center
10:44PM 35.0970 -81.2799 192° South  Level FlightAware Approximate
10:44PM 35.2058 -81.2097 237° Southwest 301 346 10,300  Level Atlanta Center
10:45PM 35.0535 -81.3877 251° West  Level FlightAware Approximate
10:45PM 35.1397 -81.3314 236° Southwest 346 398 12,500  Level Atlanta Center
10:46PM 35.0914 -81.4192 236° Southwest 356 410 14,100 1,620 Climbing Atlanta Center
10:47PM 35.0333 -81.5275 237° Southwest 368 423 15,800 1,860 Climbing Atlanta Center
10:48PM 34.9833 -81.6406 242° Southwest 387 445 17,900 1,980 Climbing Atlanta Center
10:49PM 34.9461 -81.7633 250° West 387 445 19,800 1,740 Climbing Atlanta Center
10:50PM 34.8917 -81.8786 240° Southwest 387 445 21,400 1,440 Climbing Atlanta Center
10:51PM 34.8269 -81.9917 235° Southwest 398 458 22,700 1,260 Climbing Atlanta Center
10:52PM 34.7600 -82.1097 235° Southwest 415 478 24,000 1,320 Climbing Atlanta Center
10:53PM 34.6931 -82.2275 235° Southwest 428 493 25,400 1,380 Climbing Atlanta Center
10:54PM 34.6278 -82.3450 236° Southwest 434 499 26,800 1,200 Climbing Atlanta Center
10:55PM 34.5583 -82.4622 234° Southwest 434 499 27,800 900 Climbing Atlanta Center
10:56PM 34.4786 -82.5950 234° Southwest 434 499 28,700 1,080 Climbing Atlanta Center
10:57PM 34.4069 -82.7169 235° Southwest 439 505 30,000 1,200 Climbing Atlanta Center
10:58PM 34.3394 -82.8364 236° Southwest 439 505 31,100 1,080 Climbing Atlanta Center
10:59PM 34.2694 -82.9578 235° Southwest 439 505 32,200 1,080 Climbing Atlanta Center
11:00PM 34.2017 -83.0744 235° Southwest 439 505 33,300 900 Climbing Atlanta Center
11:01PM 34.1397 -83.1806 235° Southwest 439 505 34,000 300 Climbing Atlanta Center
11:02PM 34.0717 -83.3014 236° Southwest 433 498 34,000  Level Atlanta Center
11:03PM 33.9972 -83.4250 234° Southwest 445 512 34,000  Level Atlanta Center
11:04PM 33.9247 -83.5456 234° Southwest 450 518 34,000  Level Atlanta Center
11:05PM 33.8522 -83.6686 235° Southwest 455 524 34,000  Level Atlanta Center
11:06PM 33.7711 -83.8064 235° Southwest 455 524 34,000  Level Atlanta Center
11:07PM 33.6961 -83.9289 234° Southwest 460 529 34,000  Level Atlanta Center
11:08PM 33.6231 -84.0539 235° Southwest 460 529 34,000  Level Atlanta Center
11:09PM 33.5478 -84.1758 233° Southwest 460 529 34,000  Level Atlanta Center
11:10PM 33.4767 -84.3003 236° Southwest 465 535 34,000  Level Atlanta Center
11:11PM 33.4033 -84.4219 234° Southwest 465 535 34,000  Level Atlanta Center
11:12PM 33.3361 -84.5311 234° Southwest 465 535 34,000  Level Atlanta Center
11:13PM 33.2625 -84.6575 235° Southwest 460 529 34,000  Level Atlanta Center
11:14PM 33.1889 -84.7786 234° Southwest 460 529 34,000  Level Atlanta Center
11:15PM 33.1169 -84.8969 234° Southwest 455 524 34,000  Level Atlanta Center
11:16PM 33.0453 -85.0153 234° Southwest 450 518 34,000  Level Atlanta Center
11:17PM 32.9692 -85.1356 233° Southwest 455 524 34,000  Level Atlanta Center
11:18PM 32.8886 -85.2608 233° Southwest 449 517 34,000  Level Atlanta Center
11:19PM 32.8164 -85.3811 234° Southwest 449 517 34,000  Level Atlanta Center
11:20PM 32.7419 -85.4983 233° Southwest 449 517 34,000  Level Atlanta Center
11:21PM 32.6697 -85.6131 233° Southwest 449 517 34,000  Level Atlanta Center
11:22PM 32.5950 -85.7325 233° Southwest 449 517 34,000  Level Atlanta Center
11:23PM 32.5222 -85.8494 234° Southwest 449 517 34,000  Level Atlanta Center
11:24PM 32.4497 -85.9636 233° Southwest 463 533 34,000  Level Atlanta Center
11:25PM 32.3769 -86.0778 233° Southwest 458 527 34,000  Level Atlanta Center
11:26PM 32.3017 -86.1964 233° Southwest 458 527 34,000  Level Atlanta Center
11:27PM 32.2203 -86.3244 233° Southwest 449 517 34,000  Level Atlanta Center
11:28PM 32.1511 -86.4453 236° Southwest 454 522 34,000  Level Atlanta Center
11:29PM 32.0778 -86.5661 234° Southwest 454 522 34,000  Level Atlanta Center
11:30PM 32.0044 -86.6792 233° Southwest 444 511 34,000  Level Atlanta Center
11:31PM 31.9311 -86.7822 230° Southwest 451 519 34,000  Level Atlanta Center
11:32PM 31.8556 -86.8972 232° Southwest 457 526 34,000  Level Atlanta Center
11:33PM 31.7775 -87.0169 233° Southwest 457 526 34,000  Level Atlanta Center
11:34PM 31.7039 -87.1314 233° Southwest 457 526 34,000  Level Atlanta Center
11:36PM 31.5594 -87.3508 232° Southwest 452 520 34,000  Level Houston Center
11:37PM 31.4842 -87.4658 233° Southwest 447 514 34,000  Level Houston Center
11:38PM 31.4092 -87.5819 233° Southwest 447 514 34,000  Level Houston Center
11:39PM 31.3183 -87.7192 232° Southwest 445 512 34,000  Level Houston Center
11:40PM 31.2431 -87.8339 233° Southwest 445 512 34,000  Level Houston Center
11:41PM 31.1642 -87.9489 231° Southwest 451 519 34,000  Level Houston Center
11:42PM 31.0872 -88.0642 232° Southwest 451 519 34,000 -420 Level Houston Center
11:43PM 31.0117 -88.1786 232° Southwest 447 514 33,200 -1,020 Descending Houston Center
11:44PM 30.9356 -88.2936 232° Southwest 447 514 32,000 -1,200 Descending Houston Center
11:45PM 30.8564 -88.4108 232° Southwest 455 524 30,800 -1,200 Descending Houston Center
11:46PM 30.7764 -88.5292 232° Southwest 462 532 29,600 -1,260 Descending Houston Center
11:47PM 30.6869 -88.6606 232° Southwest 475 547 28,300 -1,320 Descending Houston Center
11:48PM 30.6072 -88.7786 232° Southwest 469 540 27,000 -1,440 Descending Houston Center
11:49PM 30.5294 -88.8933 232° Southwest 454 522 25,400 -1,920 Descending Houston Center
11:50PM 30.4608 -88.9964 232° Southwest 442 509 23,200 -2,340 Descending Houston Center
11:51PM 30.3867 -89.1358 238° Southwest 427 491 20,300 -2,340 Descending Houston Center
11:52PM 30.3481 -89.2319 245° Southwest 413 475 18,500 -2,340 Descending Houston Center
11:52PM 30.3297 -89.2881 249° West 408 470 17,500 -2,220 Descending Houston Center
11:53PM 30.3047 -89.3511 245° Southwest 405 466 16,300 -2,340 Descending Houston Center
11:53PM 30.2822 -89.4133 247° West 390 449 15,200 -2,100 Descending Houston Center
11:54PM 30.2625 -89.4656 246° West 390 449 14,200 -2,100 Descending Houston Center
11:54PM 30.2406 -89.5283 248° West 386 444 13,100 -2,220 Descending Houston Center
11:55PM 30.2197 -89.5811 245° Southwest 388 447 12,000 -2,040 Descending Houston Center
11:55PM 30.1983 -89.6386 247° West 376 433 11,100 -1,020 Descending Houston Center
11:56PM 30.1769 -89.6889 244° Southwest 371 427 11,000 -300 Descending Houston Center
11:56PM 30.1411 -89.7375 230° Southwest 332 382 10,800 -840 Descending Houston Center
11:57PM 30.1175 -89.7678 228° Southwest 322 371 10,200 -1,800 Descending Houston Center
11:58PM 30.0853 -89.8122 230° Southwest 300 345 9,000 -1,920 Descending Houston Center
11:58PM 30.0606 -89.8431 227° Southwest 310 357 8,300 -1,620 Descending Houston Center
11:59PM 30.0269 -89.8844 227° Southwest 304 350 7,400 -1,440 Descending Houston Center
11:59PM 30.0044 -89.9153 230° Southwest 304 350 6,900 -1,380 Descending Houston Center
12:00AM 29.9708 -89.9589 228° Southwest 286 329 6,000 -1,620 Descending Houston Center
12:00AM 29.9606 -89.9881 248° West 291 335 5,300 -1,620 Descending Houston Center
12:01AM 29.9422 -90.0417 248° West 273 314 4,400 -1,620 Descending Houston Center
12:01AM 29.9353 -90.0708 255° West 275 316 3,700 -1,920 Descending Houston Center
12:02AM 29.9178 -90.1242 249° West 274 315 2,500 -1,380 Descending Houston Center
12:02AM 29.9106 -90.1528 254° West 271 312 2,300 -420 Descending Houston Center
12:03AM 29.8972 -90.1994 252° West 234 269 2,100 -420 Descending Houston Center
12:03AM 29.8933 -90.2247 260° West 251 289 1,900 -120 Descending Houston Center
12:04AM 29.9072 -90.2614 294° West 192 221 2,000 180 Climbing Houston Center